createdAt,value
2022-08-17T00:01:28.945Z,23.88
2022-08-17T00:04:09.283Z,23.75
2022-08-17T00:06:44.700Z,23.94
2022-08-17T00:09:19.593Z,23.76
2022-08-17T00:12:41.924Z,23.83
2022-08-17T00:14:45.480Z,23.89
2022-08-17T00:17:18.351Z,23.89
2022-08-17T00:19:51.479Z,23.95
2022-08-17T00:22:32.857Z,23.86
2022-08-17T00:25:16.607Z,23.81
2022-08-17T00:27:49.363Z,23.94
2022-08-17T00:30:22.636Z,24.01
2022-08-17T00:33:12.286Z,23.95
2022-08-17T00:35:49.468Z,23.92
2022-08-17T00:38:23.534Z,23.80
2022-08-17T00:41:00.627Z,23.85
2022-08-17T00:43:46.728Z,23.86
2022-08-17T00:46:26.450Z,23.78
2022-08-17T00:49:00.045Z,23.67
2022-08-17T00:51:44.348Z,23.63
2022-08-17T00:54:33.258Z,23.72
2022-08-17T00:57:35.259Z,23.66
2022-08-17T01:00:16.202Z,23.77
2022-08-17T01:02:49.485Z,23.65
2022-08-17T01:05:26.052Z,23.40
2022-08-17T01:08:01.740Z,23.22
2022-08-17T01:10:58.482Z,23.08
2022-08-17T01:13:41.166Z,23.15
2022-08-17T01:16:17.170Z,23.07
2022-08-17T01:18:54.359Z,22.87
2022-08-17T01:21:37.035Z,23.05
2022-08-17T01:24:10.471Z,23.11
2022-08-17T01:26:44.469Z,23.15
2022-08-17T01:29:19.242Z,23.11
2022-08-17T01:31:58.061Z,23.17
2022-08-17T01:34:42.962Z,23.08
2022-08-17T01:37:17.958Z,22.94
2022-08-17T01:40:00.641Z,22.89
2022-08-17T01:42:40.458Z,22.97
2022-08-17T01:45:17.907Z,23.04
2022-08-17T01:47:51.657Z,23.09
2022-08-17T01:50:28.584Z,23.12
2022-08-17T01:53:22.155Z,23.10
2022-08-17T01:56:10.922Z,23.13
2022-08-17T01:58:49.116Z,23.11
2022-08-17T02:01:26.609Z,23.10
2022-08-17T02:04:01.602Z,22.99
2022-08-17T02:06:45.135Z,23.05
2022-08-17T02:09:29.623Z,22.83
2022-08-17T02:12:37.195Z,22.91
2022-08-17T02:14:56.934Z,22.88
2022-08-17T02:17:29.634Z,22.81
2022-08-17T02:20:03.080Z,22.62
2022-08-17T02:22:37.943Z,22.69
2022-08-17T02:25:16.324Z,22.82
2022-08-17T02:27:49.204Z,22.88
2022-08-17T02:31:01.331Z,22.96
2022-08-17T02:33:17.453Z,22.82
2022-08-17T02:35:54.609Z,22.81
2022-08-17T02:38:27.510Z,22.86
2022-08-17T02:41:00.642Z,22.75
2022-08-17T02:43:33.997Z,22.44
2022-08-17T02:46:06.983Z,22.36
2022-08-17T02:48:40.135Z,22.41
2022-08-17T02:51:13.228Z,22.55
2022-08-17T02:53:46.905Z,22.49
2022-08-17T02:56:20.179Z,22.47
2022-08-17T02:58:52.928Z,22.50
2022-08-17T03:01:26.080Z,22.59
2022-08-17T03:03:59.302Z,22.66
2022-08-17T03:06:32.388Z,22.50
2022-08-17T03:09:05.172Z,22.51
2022-08-17T03:11:38.189Z,22.45
2022-08-17T03:14:10.990Z,22.28
2022-08-17T03:16:44.899Z,22.23
2022-08-17T03:19:17.709Z,22.34
2022-08-17T03:21:55.116Z,22.34
2022-08-17T03:24:29.298Z,22.23
2022-08-17T03:27:04.543Z,22.12
2022-08-17T03:29:37.255Z,22.24
2022-08-17T03:32:15.544Z,22.33
2022-08-17T03:34:48.704Z,22.35
2022-08-17T03:37:21.672Z,22.28
2022-08-17T03:39:54.756Z,22.38
2022-08-17T03:42:32.015Z,22.25
2022-08-17T03:45:10.698Z,22.20
2022-08-17T03:48:02.388Z,22.23
2022-08-17T03:50:54.018Z,22.21
2022-08-17T03:53:45.692Z,22.22
2022-08-17T03:56:37.429Z,22.18
2022-08-17T03:59:22.673Z,22.25
2022-08-17T04:01:59.143Z,22.23
2022-08-17T04:04:32.164Z,22.28
2022-08-17T04:07:05.673Z,22.26
2022-08-17T04:09:39.160Z,22.24
2022-08-17T04:12:14.632Z,22.36
2022-08-17T04:14:53.465Z,22.33
2022-08-17T04:17:29.298Z,22.23
2022-08-17T04:20:15.403Z,22.33
2022-08-17T04:23:04.952Z,22.33
2022-08-17T04:25:42.407Z,22.40
2022-08-17T04:28:16.570Z,22.32
2022-08-17T04:30:49.868Z,22.33
2022-08-17T04:33:25.103Z,22.43
2022-08-17T04:36:02.189Z,22.24
2022-08-17T04:38:38.703Z,22.13
2022-08-17T04:41:32.438Z,22.18
2022-08-17T04:44:05.157Z,22.24
2022-08-17T04:46:39.033Z,22.36
2022-08-17T04:49:12.261Z,22.46
2022-08-17T04:51:54.715Z,22.46
2022-08-17T04:54:29.804Z,22.40
2022-08-17T04:57:02.797Z,22.37
2022-08-17T04:59:35.621Z,22.37
2022-08-17T05:02:08.654Z,22.41
2022-08-17T05:04:41.878Z,22.43
2022-08-17T05:07:17.618Z,22.44
2022-08-17T05:09:52.780Z,22.53
2022-08-17T05:12:26.105Z,22.69
2022-08-17T05:14:58.885Z,22.80
2022-08-17T05:17:31.959Z,23.01
2022-08-17T05:20:05.449Z,22.92
2022-08-17T05:22:49.425Z,22.51
2022-08-17T05:25:25.785Z,22.52
2022-08-17T05:28:00.084Z,22.73
2022-08-17T05:30:35.471Z,22.92
2022-08-17T05:33:13.015Z,23.02
2022-08-17T05:35:48.308Z,23.11
2022-08-17T05:38:23.599Z,23.32
2022-08-17T05:40:57.346Z,23.38
2022-08-17T05:43:34.165Z,23.56
2022-08-17T05:46:28.752Z,23.68
2022-08-17T05:49:05.047Z,23.81
2022-08-17T05:51:41.301Z,23.67
2022-08-17T05:54:14.382Z,23.72
2022-08-17T05:57:09.081Z,23.72
2022-08-17T05:59:51.297Z,23.94
2022-08-17T06:02:52.013Z,24.00
2022-08-17T06:05:56.353Z,23.97
2022-08-17T06:08:48.261Z,24.06
2022-08-17T06:11:55.261Z,24.25
2022-08-17T06:14:36.485Z,24.42
2022-08-17T06:17:16.836Z,24.60
2022-08-17T06:19:57.419Z,24.48
2022-08-17T06:22:36.191Z,24.66
2022-08-17T06:25:16.244Z,24.73
2022-08-17T06:27:53.530Z,24.44
2022-08-17T06:30:58.345Z,24.86
2022-08-17T06:33:29.082Z,24.80
2022-08-17T06:36:17.629Z,25.02
2022-08-17T06:39:03.231Z,25.16
2022-08-17T06:41:56.760Z,25.05
2022-08-17T06:44:51.584Z,25.35
2022-08-17T06:47:40.892Z,25.59
2022-08-17T06:50:27.400Z,25.39
2022-08-17T06:53:25.859Z,25.64
2022-08-17T06:56:05.468Z,25.75
2022-08-17T06:58:40.911Z,25.81
2022-08-17T07:01:18.075Z,26.04
2022-08-17T07:04:13.634Z,26.19
2022-08-17T07:06:54.565Z,26.35
2022-08-17T07:09:46.076Z,26.52
2022-08-17T07:12:24.721Z,26.68
2022-08-17T07:15:13.089Z,26.77
2022-08-17T07:17:49.984Z,26.94
2022-08-17T07:20:31.305Z,27.15
2022-08-17T07:23:34.061Z,27.05
2022-08-17T07:26:09.476Z,27.14
2022-08-17T07:28:44.833Z,27.40
2022-08-17T07:31:17.736Z,27.50
2022-08-17T07:34:14.601Z,27.67
2022-08-17T07:36:47.364Z,27.52
2022-08-17T07:39:27.987Z,27.60
2022-08-17T07:42:05.098Z,27.86
2022-08-17T07:44:52.778Z,28.04
2022-08-17T07:47:44.398Z,28.18
2022-08-17T07:50:29.369Z,28.27
2022-08-17T07:53:17.980Z,28.60
2022-08-17T07:55:53.652Z,28.82
2022-08-17T07:58:26.623Z,28.99
2022-08-17T08:01:08.246Z,28.78
2022-08-17T08:03:43.925Z,29.01
2022-08-17T08:06:23.990Z,29.21
2022-08-17T08:09:00.536Z,29.27
2022-08-17T08:11:36.545Z,29.20
2022-08-17T08:14:31.331Z,29.27
2022-08-17T08:17:09.384Z,29.36
2022-08-17T08:19:43.222Z,29.66
2022-08-17T08:22:28.944Z,29.75
2022-08-17T08:25:15.014Z,30.03
2022-08-17T08:28:01.604Z,30.11
2022-08-17T08:30:45.217Z,30.07
2022-08-17T08:33:28.867Z,30.21
2022-08-17T08:37:14.209Z,30.37
2022-08-17T08:39:37.509Z,30.63
2022-08-17T08:42:19.356Z,30.74
2022-08-17T08:45:06.791Z,31.00
2022-08-17T08:48:12.715Z,31.25
2022-08-17T08:51:46.570Z,31.43
2022-08-17T08:54:44.458Z,31.46
2022-08-17T08:57:26.793Z,31.41
2022-08-17T09:00:19.425Z,31.43
2022-08-17T09:03:51.846Z,31.20
2022-08-17T09:06:44.481Z,31.73
2022-08-17T09:09:42.386Z,32.05
2022-08-17T09:12:38.305Z,31.79
2022-08-17T09:15:20.085Z,31.89
2022-08-17T09:18:21.383Z,32.11
2022-08-17T09:21:10.365Z,32.26
2022-08-17T09:23:51.616Z,32.38
2022-08-17T09:26:31.031Z,32.51
2022-08-17T09:29:10.103Z,32.51
2022-08-17T09:31:59.773Z,32.67
2022-08-17T09:34:50.972Z,32.81
2022-08-17T09:37:25.190Z,32.50
2022-08-17T09:40:09.733Z,32.67
2022-08-17T09:43:00.824Z,33.05
2022-08-17T09:45:49.563Z,32.84
2022-08-17T09:48:26.056Z,32.69
2022-08-17T09:51:12.776Z,33.07
2022-08-17T09:53:45.655Z,33.06
2022-08-17T09:56:21.621Z,33.30
2022-08-17T09:59:14.020Z,33.60
2022-08-17T10:02:00.184Z,33.86
2022-08-17T10:04:45.066Z,33.86
2022-08-17T10:07:25.090Z,33.60
2022-08-17T10:10:15.665Z,33.52
2022-08-17T10:13:06.324Z,33.38
2022-08-17T10:15:53.681Z,33.83
2022-08-17T10:19:02.182Z,33.99
2022-08-17T10:22:01.350Z,33.78
2022-08-17T10:25:21.588Z,34.00
2022-08-17T10:28:08.416Z,33.95
2022-08-17T10:54:51.521Z,34.55
2022-08-17T11:27:08.902Z,35.56
2022-08-17T11:30:03.355Z,35.56
2022-08-17T11:32:54.447Z,34.33
2022-08-17T11:35:47.235Z,33.68
2022-08-17T11:38:31.360Z,33.43
2022-08-17T11:41:27.497Z,33.97
2022-08-17T11:44:47.515Z,33.91
2022-08-17T11:48:23.707Z,34.02
2022-08-17T11:51:17.305Z,34.48
2022-08-17T11:53:50.318Z,34.67
2022-08-17T11:56:41.192Z,35.08
2022-08-17T11:59:50.496Z,35.12
2022-08-17T12:02:31.538Z,35.01
2022-08-17T12:05:14.307Z,35.39
2022-08-17T12:07:51.653Z,35.76
2022-08-17T12:10:32.026Z,35.52
2022-08-17T12:13:14.354Z,35.71
2022-08-17T12:15:51.029Z,36.09
2022-08-17T12:18:30.530Z,36.37
2022-08-17T12:21:09.260Z,36.25
2022-08-17T12:23:55.716Z,35.41
2022-08-17T12:26:33.506Z,34.78
2022-08-17T12:29:38.915Z,34.87
2022-08-17T12:32:07.184Z,35.23
2022-08-17T12:34:42.720Z,35.84
2022-08-17T12:37:19.156Z,36.24
2022-08-17T12:40:02.174Z,36.00
2022-08-17T12:42:39.398Z,36.34
2022-08-17T12:45:27.525Z,36.66
2022-08-17T12:48:13.704Z,37.02
2022-08-17T12:50:47.295Z,37.08
2022-08-17T12:53:25.106Z,37.25
2022-08-17T12:56:00.456Z,37.22
2022-08-17T12:58:37.935Z,37.38
2022-08-17T13:01:16.329Z,37.18
2022-08-17T13:03:57.306Z,36.87
2022-08-17T13:06:48.318Z,36.02
2022-08-17T13:09:35.907Z,36.50
2022-08-17T13:12:13.374Z,36.71
2022-08-17T13:14:46.557Z,36.32
2022-08-17T13:17:31.473Z,35.91
2022-08-17T13:20:14.728Z,36.16
2022-08-17T13:22:56.112Z,36.33
2022-08-17T13:25:30.269Z,36.83
2022-08-17T13:28:03.508Z,37.12
2022-08-17T13:30:37.859Z,36.51
2022-08-17T13:33:43.617Z,36.85
2022-08-17T13:36:30.291Z,36.80
2022-08-17T13:39:24.240Z,36.68
2022-08-17T13:41:57.998Z,36.14
2022-08-17T13:44:33.588Z,35.85
2022-08-17T13:47:18.329Z,35.98
2022-08-17T13:49:55.402Z,35.90
2022-08-17T13:52:40.480Z,35.98
2022-08-17T13:55:22.966Z,35.86
2022-08-17T13:57:59.559Z,35.98
2022-08-17T14:00:40.917Z,35.73
2022-08-17T14:03:15.400Z,35.79
2022-08-17T14:05:50.191Z,35.90
2022-08-17T14:08:23.320Z,36.00
2022-08-17T14:10:59.305Z,35.98
2022-08-17T14:13:32.422Z,35.93
2022-08-17T14:16:05.314Z,35.99
2022-08-17T14:18:57.124Z,35.95
2022-08-17T14:21:30.353Z,36.03
2022-08-17T14:24:04.269Z,35.66
2022-08-17T14:26:38.579Z,35.17
2022-08-17T14:29:15.413Z,35.05
2022-08-17T14:31:54.370Z,35.32
2022-08-17T14:34:27.997Z,35.32
2022-08-17T14:37:00.938Z,35.39
2022-08-17T14:39:34.293Z,35.49
2022-08-17T14:42:07.449Z,35.48
2022-08-17T14:44:41.032Z,35.39
2022-08-17T14:47:13.971Z,35.38
2022-08-17T14:49:48.549Z,35.34
2022-08-17T14:52:22.055Z,35.30
2022-08-17T14:54:55.515Z,35.19
2022-08-17T14:57:34.316Z,35.12
2022-08-17T15:00:11.590Z,35.15
2022-08-17T15:02:56.411Z,34.98
2022-08-17T15:05:33.740Z,34.94
2022-08-17T15:08:07.173Z,34.68
2022-08-17T15:10:40.321Z,34.74
2022-08-17T15:13:20.368Z,34.74
2022-08-17T15:15:54.578Z,34.98
2022-08-17T15:18:27.721Z,34.67
2022-08-17T15:21:04.451Z,34.91
2022-08-17T15:23:39.811Z,35.01
2022-08-17T15:26:13.300Z,35.06
2022-08-17T15:28:52.195Z,34.98
2022-08-17T15:31:31.883Z,35.03
2022-08-17T15:34:07.973Z,34.95
2022-08-17T15:36:49.254Z,35.00
2022-08-17T15:39:22.699Z,34.95
2022-08-17T15:41:58.422Z,34.83
2022-08-17T15:44:35.069Z,34.80
2022-08-17T15:47:08.330Z,34.72
2022-08-17T15:49:41.929Z,34.65
2022-08-17T15:52:24.417Z,34.73
2022-08-17T15:55:00.613Z,34.65
2022-08-17T15:57:36.205Z,34.81
2022-08-17T16:00:10.312Z,34.73
2022-08-17T16:03:44.544Z,34.49
2022-08-17T16:05:40.887Z,34.48
2022-08-17T16:08:18.498Z,34.45
2022-08-17T16:10:55.503Z,34.36
2022-08-17T16:13:28.480Z,34.40
2022-08-17T16:16:01.576Z,34.31
2022-08-17T16:18:36.535Z,34.33
2022-08-17T16:21:25.961Z,34.25
2022-08-17T16:23:58.813Z,34.14
2022-08-17T16:26:33.097Z,34.14
2022-08-17T16:29:07.074Z,34.03
2022-08-17T16:31:44.810Z,33.98
2022-08-17T16:34:20.329Z,33.98
2022-08-17T16:36:56.169Z,34.09
2022-08-17T16:39:29.703Z,34.00
2022-08-17T16:42:04.896Z,34.04
2022-08-17T16:44:37.738Z,33.93
2022-08-17T16:47:10.882Z,33.81
2022-08-17T16:49:45.211Z,33.72
2022-08-17T16:52:32.704Z,33.68
2022-08-17T16:55:08.540Z,33.49
2022-08-17T16:57:48.548Z,33.60
2022-08-17T17:00:23.578Z,33.58
2022-08-17T17:03:19.769Z,33.40
2022-08-17T17:06:07.363Z,33.32
2022-08-17T17:08:48.962Z,33.22
2022-08-17T17:11:37.141Z,33.05
2022-08-17T17:14:18.311Z,32.90
2022-08-17T17:17:16.831Z,32.92
2022-08-17T17:19:58.913Z,32.72
2022-08-17T17:22:42.072Z,32.67
2022-08-17T17:25:20.900Z,32.47
2022-08-17T17:28:08.997Z,32.18
2022-08-17T17:30:54.076Z,32.20
2022-08-17T17:33:48.375Z,32.16
2022-08-17T17:36:27.833Z,31.97
2022-08-17T17:39:23.977Z,31.85
2022-08-17T17:42:07.676Z,31.65
2022-08-17T17:45:24.080Z,31.35
2022-08-17T17:47:57.578Z,31.16
2022-08-17T17:50:37.543Z,31.05
2022-08-17T17:53:41.618Z,30.93
2022-08-17T17:56:42.904Z,30.81
2022-08-17T17:59:29.812Z,30.75
2022-08-17T18:02:37.831Z,30.71
2022-08-17T18:05:16.283Z,30.55
2022-08-17T18:08:16.762Z,30.43
2022-08-17T18:10:58.886Z,30.33
2022-08-17T18:14:05.496Z,30.23
2022-08-17T18:16:48.137Z,30.10
2022-08-17T18:19:25.129Z,30.03
2022-08-17T18:22:01.652Z,29.97
2022-08-17T18:24:38.782Z,29.89
2022-08-17T18:27:37.491Z,29.81
2022-08-17T18:30:14.689Z,29.73
2022-08-17T18:32:48.181Z,29.60
2022-08-17T18:35:22.392Z,29.52
2022-08-17T18:38:19.923Z,29.44
2022-08-17T18:41:00.680Z,29.37
2022-08-17T18:43:44.288Z,29.39
2022-08-17T18:46:37.902Z,29.28
2022-08-17T18:49:20.245Z,29.19
2022-08-17T18:52:11.787Z,29.11
2022-08-17T18:55:08.709Z,29.03
2022-08-17T18:57:45.884Z,28.92
2022-08-17T19:00:40.649Z,28.87
2022-08-17T19:03:16.582Z,28.88
2022-08-17T19:05:54.095Z,28.83
2022-08-17T19:08:30.205Z,28.74
2022-08-17T19:11:09.782Z,28.64
2022-08-17T19:13:42.943Z,28.57
2022-08-17T19:16:42.225Z,28.60
2022-08-17T19:19:27.081Z,28.56
2022-08-17T19:22:28.798Z,28.42
2022-08-17T19:25:16.065Z,28.40
2022-08-17T19:28:21.581Z,28.39
2022-08-17T19:31:04.639Z,28.32
2022-08-17T19:33:37.860Z,28.23
2022-08-17T19:36:34.772Z,28.17
2022-08-17T19:40:05.601Z,28.14
2022-08-17T19:42:56.556Z,27.92
2022-08-17T19:45:45.658Z,27.55
2022-08-17T19:48:18.671Z,27.27
2022-08-17T19:51:12.752Z,27.14
2022-08-17T19:54:05.915Z,27.09
2022-08-17T19:57:09.859Z,26.98
2022-08-17T20:00:08.288Z,27.13
2022-08-17T20:03:06.147Z,27.06
2022-08-17T20:06:10.843Z,27.08
2022-08-17T20:08:53.927Z,27.13
2022-08-17T20:11:35.038Z,27.15
2022-08-17T20:14:16.369Z,27.11
2022-08-17T20:16:49.261Z,27.15
2022-08-17T20:20:19.456Z,26.92
2022-08-17T20:23:11.494Z,26.78
2022-08-17T20:25:57.525Z,26.61
2022-08-17T20:28:35.225Z,26.69
2022-08-17T20:31:49.632Z,26.72
2022-08-17T20:34:33.644Z,26.78
2022-08-17T20:37:28.315Z,26.55
2022-08-17T20:40:04.327Z,26.55
2022-08-17T20:42:39.536Z,26.38
2022-08-17T20:45:21.381Z,26.18
2022-08-17T20:48:35.055Z,26.22
2022-08-17T20:51:01.029Z,26.18
2022-08-17T20:53:49.409Z,26.17
2022-08-17T20:56:44.189Z,26.03
2022-08-17T20:59:26.129Z,26.02
2022-08-17T21:02:18.326Z,26.08
2022-08-17T21:04:54.573Z,26.01
2022-08-17T21:07:30.395Z,25.96
2022-08-17T21:10:23.901Z,25.95
2022-08-17T21:13:12.545Z,25.92
2022-08-17T21:16:01.206Z,25.79
2022-08-17T21:18:40.060Z,25.78
2022-08-17T21:21:26.756Z,26.01
2022-08-17T21:24:08.640Z,26.11
2022-08-17T21:27:17.496Z,26.17
2022-08-17T21:30:13.379Z,25.88
2022-08-17T21:33:11.834Z,25.94
2022-08-17T21:35:59.697Z,25.94
2022-08-17T21:38:41.780Z,26.03
2022-08-17T21:41:33.958Z,25.74
2022-08-17T21:44:21.624Z,25.60
2022-08-17T21:46:54.707Z,25.46
2022-08-17T21:49:28.794Z,25.38
2022-08-17T21:52:02.456Z,25.39
2022-08-17T21:54:39.927Z,25.40
2022-08-17T21:57:20.406Z,25.51
2022-08-17T22:00:01.628Z,25.53
2022-08-17T22:02:38.282Z,25.34
2022-08-17T22:05:14.613Z,25.39
2022-08-17T22:07:51.030Z,25.38
2022-08-17T22:10:40.988Z,25.33
2022-08-17T22:13:22.243Z,25.42
2022-08-17T22:16:28.648Z,25.43
2022-08-17T22:19:04.806Z,25.41
2022-08-17T22:21:37.930Z,25.31
2022-08-17T22:24:22.058Z,25.20
2022-08-17T22:27:03.288Z,25.16
2022-08-17T22:29:48.176Z,25.17
2022-08-17T22:32:43.846Z,25.20
2022-08-17T22:35:40.181Z,25.11
2022-08-17T22:38:20.017Z,25.11
2022-08-17T22:41:13.947Z,25.19
2022-08-17T22:43:48.233Z,25.16
2022-08-17T22:46:24.019Z,25.14
2022-08-17T22:48:59.613Z,25.05
2022-08-17T22:51:32.908Z,24.97
2022-08-17T22:54:36.237Z,24.52
2022-08-17T22:57:32.462Z,24.24
2022-08-17T23:00:35.232Z,23.98
2022-08-17T23:03:16.020Z,23.90
2022-08-17T23:06:10.579Z,23.82
2022-08-17T23:08:50.223Z,23.97
2022-08-17T23:11:36.902Z,23.49
2022-08-17T23:14:20.771Z,23.51
2022-08-17T23:16:53.935Z,23.52
2022-08-17T23:19:28.170Z,23.70
2022-08-17T23:22:04.546Z,23.91
2022-08-17T23:24:46.204Z,24.02
2022-08-17T23:27:20.221Z,24.07
2022-08-17T23:29:53.122Z,24.17
2022-08-17T23:32:26.182Z,24.14
2022-08-17T23:34:59.841Z,24.19
2022-08-17T23:37:32.946Z,24.34
2022-08-17T23:40:06.351Z,24.25
2022-08-17T23:42:43.379Z,24.32
2022-08-17T23:45:19.994Z,24.35
2022-08-17T23:47:53.173Z,24.45
2022-08-17T23:50:25.998Z,24.39
2022-08-17T23:53:07.712Z,24.52
2022-08-17T23:55:40.514Z,24.37
2022-08-17T23:58:13.523Z,24.29
